createdAt,value
2019-03-26T00:01:04.684Z,5.30
2019-03-26T00:08:33.457Z,5.20
2019-03-26T00:11:03.485Z,5.20
2019-03-26T00:16:03.030Z,5.20
2019-03-26T00:18:33.128Z,5.10
2019-03-26T00:21:03.485Z,5.30
2019-03-26T00:23:33.605Z,5.10
2019-03-26T00:26:03.681Z,5.20
2019-03-26T00:31:03.207Z,5.20
2019-03-26T00:33:36.681Z,5.20
2019-03-26T00:36:05.281Z,5.20
2019-03-26T00:38:35.449Z,5.20
2019-03-26T00:43:35.066Z,5.30
2019-03-26T00:46:05.158Z,5.20
2019-03-26T00:51:04.413Z,5.20
2019-03-26T00:53:34.489Z,5.20
2019-03-26T00:56:04.645Z,5.30
2019-03-26T00:58:35.031Z,5.20
2019-03-26T01:01:05.102Z,5.10
2019-03-26T01:06:04.642Z,5.20
2019-03-26T01:08:35.614Z,5.20
2019-03-26T01:11:06.002Z,5.20
2019-03-26T01:13:37.363Z,5.20
2019-03-26T01:16:07.437Z,5.20
2019-03-26T01:18:37.538Z,5.20
2019-03-26T01:21:07.923Z,5.20
2019-03-26T01:23:38.030Z,5.20
2019-03-26T01:28:41.353Z,5.20
2019-03-26T01:31:11.453Z,5.10
2019-03-26T01:33:41.651Z,5.20
2019-03-26T01:38:41.290Z,6.20
2019-03-26T01:41:11.388Z,5.20
2019-03-26T01:43:41.734Z,5.20
2019-03-26T01:48:40.977Z,5.20
2019-03-26T01:53:40.562Z,5.20
2019-03-26T01:56:10.757Z,5.30
2019-03-26T01:58:41.373Z,5.30
2019-03-26T02:01:11.446Z,5.30
2019-03-26T02:03:41.677Z,5.30
2019-03-26T02:06:12.042Z,5.30
2019-03-26T02:11:12.414Z,5.20
2019-03-26T02:13:43.769Z,5.20
2019-03-26T02:16:13.873Z,5.40
2019-03-26T02:18:44.824Z,5.20
2019-03-26T02:21:16.282Z,5.30
2019-03-26T02:23:46.377Z,5.40
2019-03-26T02:26:16.477Z,5.40
2019-03-26T02:28:46.868Z,3.40
2019-03-26T02:31:17.065Z,5.50
2019-03-26T02:33:47.315Z,5.70
2019-03-26T02:36:17.669Z,5.60
2019-03-26T02:41:16.943Z,5.50
2019-03-26T02:43:47.287Z,5.40
2019-03-26T02:46:17.383Z,5.40
2019-03-26T02:48:47.462Z,5.50
2019-03-26T02:51:17.815Z,5.40
2019-03-26T02:53:47.890Z,5.40
2019-03-26T02:58:47.413Z,5.40
2019-03-26T03:01:17.479Z,5.40
2019-03-26T03:03:47.570Z,5.30
2019-03-26T03:06:17.935Z,5.30
2019-03-26T03:08:48.015Z,5.30
2019-03-26T03:13:47.594Z,5.30
2019-03-26T03:16:17.702Z,5.20
2019-03-26T03:21:17.242Z,5.20
2019-03-26T03:23:47.326Z,5.30
2019-03-26T03:28:46.635Z,5.30
2019-03-26T03:33:45.865Z,5.30
2019-03-26T03:36:16.205Z,5.30
2019-03-26T03:41:15.472Z,5.30
2019-03-26T03:43:45.822Z,5.30
2019-03-26T03:48:46.419Z,5.20
2019-03-26T03:51:19.431Z,5.20
2019-03-26T03:53:49.494Z,5.20
2019-03-26T03:56:22.717Z,5.20
2019-03-26T03:58:52.906Z,5.20
2019-03-26T04:01:23.263Z,5.20
2019-03-26T04:03:53.370Z,5.30
2019-03-26T04:06:23.458Z,6.80
2019-03-26T04:08:53.819Z,5.20
2019-03-26T04:11:23.922Z,5.30
2019-03-26T04:16:24.283Z,5.20
2019-03-26T04:18:54.484Z,5.10
2019-03-26T04:21:24.533Z,5.20
2019-03-26T04:23:54.885Z,5.20
2019-03-26T04:26:24.981Z,5.20
2019-03-26T04:28:55.064Z,5.30
2019-03-26T04:31:26.309Z,4.50
2019-03-26T04:33:56.379Z,5.20
2019-03-26T04:38:57.086Z,5.20
2019-03-26T04:41:27.193Z,5.30
2019-03-26T04:43:57.295Z,5.20
2019-03-26T04:53:55.381Z,5.20
2019-03-26T04:56:25.477Z,4.60
2019-03-26T05:03:53.917Z,5.20
2019-03-26T05:06:37.205Z,5.10
2019-03-26T05:08:56.020Z,6.80
2019-03-26T05:11:26.094Z,5.10
2019-03-26T05:16:25.615Z,5.10
2019-03-26T05:23:54.366Z,5.60
2019-03-26T05:26:24.470Z,5.20
2019-03-26T05:28:55.013Z,5.20
2019-03-26T05:36:23.684Z,5.20
2019-03-26T05:38:53.813Z,5.10
2019-03-26T05:41:23.933Z,5.10
2019-03-26T05:48:53.090Z,5.30
2019-03-26T05:53:52.608Z,5.00
2019-03-26T05:58:52.141Z,5.00
2019-03-26T06:01:22.226Z,5.10
2019-03-26T06:03:52.299Z,5.10
2019-03-26T06:06:22.680Z,5.10
2019-03-26T06:08:52.765Z,5.10
2019-03-26T06:16:21.666Z,5.20
2019-03-26T06:18:51.966Z,5.20
2019-03-26T06:21:23.179Z,5.20
2019-03-26T06:23:53.831Z,5.20
2019-03-26T06:28:53.359Z,5.40
2019-03-26T06:33:58.410Z,5.40
2019-03-26T06:36:28.645Z,5.40
2019-03-26T06:38:58.753Z,5.40
2019-03-26T06:43:58.822Z,5.50
2019-03-26T06:46:28.916Z,5.60
2019-03-26T06:48:59.409Z,5.60
2019-03-26T06:51:29.506Z,5.60
2019-03-26T06:53:59.662Z,3.20
2019-03-26T07:01:28.410Z,5.60
2019-03-26T07:03:58.914Z,5.70
2019-03-26T07:06:29.025Z,5.70
2019-03-26T07:08:59.105Z,5.70
2019-03-26T07:13:58.653Z,5.70
2019-03-26T07:16:28.745Z,5.80
2019-03-26T07:18:59.119Z,5.80
2019-03-26T07:21:29.202Z,5.90
2019-03-26T07:24:00.189Z,6.00
2019-03-26T07:26:30.295Z,6.00
2019-03-26T07:31:29.804Z,6.20
2019-03-26T07:33:59.947Z,6.40
2019-03-26T07:36:30.047Z,6.80
2019-03-26T07:41:29.589Z,6.40
2019-03-26T07:46:28.900Z,6.40
2019-03-26T07:48:58.984Z,6.30
2019-03-26T07:51:29.202Z,6.40
2019-03-26T07:53:59.491Z,6.30
2019-03-26T07:56:29.604Z,6.30
2019-03-26T08:01:29.130Z,6.30
2019-03-26T08:03:59.221Z,5.40
2019-03-26T08:08:58.767Z,6.20
2019-03-26T08:11:28.864Z,6.20
2019-03-26T08:18:57.580Z,6.70
2019-03-26T08:21:27.677Z,6.30
2019-03-26T08:23:58.065Z,6.40
2019-03-26T08:26:29.829Z,6.40
2019-03-26T08:29:01.092Z,6.40
2019-03-26T08:31:31.466Z,7.00
2019-03-26T08:43:59.595Z,6.80
2019-03-26T08:46:29.970Z,7.70
2019-03-26T08:53:58.694Z,8.30
2019-03-26T09:01:27.381Z,8.40
2019-03-26T09:03:57.478Z,8.90
2019-03-26T09:06:27.586Z,9.10
2019-03-26T09:08:58.046Z,9.80
2019-03-26T09:11:28.186Z,8.20
2019-03-26T09:23:58.266Z,8.70
2019-03-26T09:26:28.402Z,8.60
2019-03-26T09:31:28.135Z,8.20
2019-03-26T09:34:00.970Z,8.00
2019-03-26T09:36:31.077Z,7.90
2019-03-26T09:39:01.422Z,7.90
2019-03-26T09:44:03.392Z,7.80
2019-03-26T09:49:02.706Z,7.60
2019-03-26T09:51:33.608Z,7.60
2019-03-26T09:54:03.710Z,7.50
2019-03-26T10:04:02.016Z,7.50
2019-03-26T10:09:01.289Z,7.60
2019-03-26T10:11:31.696Z,7.90
2019-03-26T10:14:01.797Z,8.20
2019-03-26T10:23:59.809Z,8.30
2019-03-26T10:26:30.223Z,8.90
2019-03-26T10:29:13.853Z,8.50
2019-03-26T10:31:32.125Z,8.40
2019-03-26T10:36:31.809Z,8.60
2019-03-26T10:39:05.801Z,8.80
2019-03-26T10:41:34.014Z,8.80
2019-03-26T10:44:04.113Z,8.80
2019-03-26T10:46:34.237Z,8.50
2019-03-26T10:54:02.944Z,7.90
2019-03-26T10:56:34.932Z,7.80
2019-03-26T10:59:05.025Z,7.90
2019-03-26T11:01:35.169Z,7.70
2019-03-26T11:04:07.856Z,7.50
2019-03-26T11:06:38.077Z,7.60
2019-03-26T11:09:20.076Z,7.50
2019-03-26T11:11:41.019Z,7.60
2019-03-26T11:14:11.063Z,7.70
2019-03-26T11:19:12.498Z,7.70
2019-03-26T11:21:42.749Z,7.90
2019-03-26T11:24:12.877Z,8.00
2019-03-26T11:31:44.814Z,9.10
2019-03-26T11:34:15.191Z,8.60
2019-03-26T11:36:45.539Z,8.40
2019-03-26T11:39:15.727Z,8.10
2019-03-26T11:41:45.772Z,8.00
2019-03-26T11:44:16.198Z,7.90
2019-03-26T11:46:46.309Z,7.90
2019-03-26T11:51:46.550Z,8.10
2019-03-26T11:54:16.634Z,8.20
2019-03-26T11:56:47.026Z,8.50
2019-03-26T12:04:15.733Z,9.20
2019-03-26T12:06:45.868Z,9.10
2019-03-26T12:09:16.006Z,9.20
2019-03-26T12:11:46.377Z,9.20
2019-03-26T12:16:45.750Z,8.90
2019-03-26T12:19:17.263Z,7.60
2019-03-26T12:21:47.380Z,8.70
2019-03-26T12:24:17.502Z,8.80
2019-03-26T12:26:47.874Z,8.70
2019-03-26T12:29:18.173Z,8.90
2019-03-26T12:34:18.348Z,9.10
2019-03-26T12:39:17.638Z,9.30
2019-03-26T12:41:48.095Z,9.50
2019-03-26T12:44:18.800Z,9.80
2019-03-26T12:49:18.986Z,9.40
2019-03-26T12:51:49.337Z,9.40
2019-03-26T12:54:19.481Z,9.20
2019-03-26T12:56:49.582Z,9.10
2019-03-26T12:59:20.979Z,7.50
2019-03-26T13:04:20.618Z,8.50
2019-03-26T13:06:50.733Z,8.50
2019-03-26T13:09:21.865Z,9.70
2019-03-26T13:14:22.404Z,8.60
2019-03-26T13:17:00.184Z,8.30
2019-03-26T13:19:30.817Z,6.80
2019-03-26T13:22:00.958Z,8.30
2019-03-26T13:24:31.025Z,8.30
2019-03-26T13:27:01.395Z,8.40
2019-03-26T13:29:31.489Z,8.40
2019-03-26T13:34:31.897Z,8.50
2019-03-26T13:37:01.999Z,8.70
2019-03-26T13:39:32.162Z,8.70
2019-03-26T13:44:34.676Z,9.10
2019-03-26T13:47:04.765Z,9.50
2019-03-26T13:49:35.130Z,9.10
2019-03-26T13:52:05.231Z,9.10
2019-03-26T13:57:04.914Z,9.40
2019-03-26T13:59:35.161Z,9.50
2019-03-26T14:02:05.258Z,9.40
2019-03-26T14:07:05.175Z,9.30
2019-03-26T14:12:05.322Z,9.20
2019-03-26T14:14:35.444Z,9.00
2019-03-26T14:17:05.900Z,8.90
2019-03-26T14:19:36.534Z,9.00
2019-03-26T14:22:07.386Z,8.80
2019-03-26T14:24:37.541Z,8.90
2019-03-26T14:27:08.543Z,8.90
2019-03-26T14:32:08.645Z,8.90
2019-03-26T14:34:40.044Z,7.90
2019-03-26T14:37:10.266Z,9.10
2019-03-26T14:39:40.398Z,9.10
2019-03-26T14:42:10.753Z,9.20
2019-03-26T14:44:41.436Z,9.20
2019-03-26T14:47:11.557Z,9.20
2019-03-26T14:49:44.615Z,9.30
2019-03-26T14:54:48.697Z,9.30
2019-03-26T14:57:18.875Z,9.20
2019-03-26T14:59:48.977Z,9.30
2019-03-26T15:02:19.521Z,9.30
2019-03-26T15:04:49.606Z,9.20
2019-03-26T15:07:19.998Z,9.20
2019-03-26T15:12:19.274Z,9.10
2019-03-26T15:19:48.160Z,9.20
2019-03-26T15:22:18.678Z,9.30
2019-03-26T15:24:50.470Z,10.70
2019-03-26T15:27:20.926Z,9.20
2019-03-26T15:29:51.891Z,9.20
2019-03-26T15:35:16.966Z,9.20
2019-03-26T15:37:52.322Z,7.50
2019-03-26T15:40:27.328Z,9.20
2019-03-26T15:43:01.508Z,9.30
2019-03-26T15:50:51.253Z,9.20
2019-03-26T15:53:22.850Z,9.00
2019-03-26T15:56:01.122Z,8.90
2019-03-26T15:58:34.423Z,9.00
2019-03-26T16:06:22.260Z,8.80
2019-03-26T16:08:54.540Z,8.80
2019-03-26T16:11:35.599Z,8.70
2019-03-26T16:13:58.943Z,8.20
2019-03-26T16:16:31.400Z,8.70
2019-03-26T16:19:13.679Z,8.70
2019-03-26T16:21:46.621Z,8.60
2019-03-26T16:24:18.603Z,8.60
2019-03-26T16:27:01.731Z,8.50
2019-03-26T16:29:32.551Z,8.50
2019-03-26T16:32:02.924Z,8.60
2019-03-26T16:34:36.568Z,8.60
2019-03-26T16:42:13.128Z,8.40
2019-03-26T16:44:44.926Z,8.50
2019-03-26T16:47:47.655Z,8.50
2019-03-26T16:50:22.793Z,8.60
2019-03-26T16:52:54.188Z,8.50
2019-03-26T16:55:26.213Z,8.40
2019-03-26T17:00:38.703Z,8.30
2019-03-26T17:03:13.199Z,8.30
2019-03-26T17:08:17.005Z,8.20
2019-03-26T17:10:55.550Z,8.10
2019-03-26T17:13:25.966Z,8.10
2019-03-26T17:16:01.175Z,8.10
2019-03-26T17:18:39.836Z,8.10
2019-03-26T17:23:53.233Z,8.00
2019-03-26T17:26:27.748Z,8.60
2019-03-26T17:31:32.324Z,8.00
2019-03-26T17:34:04.508Z,8.00
2019-03-26T17:36:36.635Z,7.80
2019-03-26T17:39:10.840Z,7.90
2019-03-26T17:41:44.938Z,7.90
2019-03-26T17:46:49.152Z,7.90
2019-03-26T17:49:22.288Z,7.90
2019-03-26T17:51:55.054Z,7.90
2019-03-26T17:54:29.323Z,7.90
2019-03-26T17:56:59.900Z,7.80
2019-03-26T18:02:07.608Z,7.80
2019-03-26T18:04:38.722Z,9.80
2019-03-26T18:07:16.253Z,7.90
2019-03-26T18:09:57.261Z,7.90
2019-03-26T18:12:46.680Z,7.90
2019-03-26T18:17:50.579Z,7.80
2019-03-26T18:20:32.391Z,7.70
2019-03-26T18:28:05.512Z,7.70
2019-03-26T18:35:45.162Z,7.60
2019-03-26T18:38:15.629Z,7.60
2019-03-26T18:40:50.109Z,7.50
2019-03-26T18:43:24.354Z,7.60
2019-03-26T18:45:56.823Z,7.60
2019-03-26T18:48:26.865Z,7.60
2019-03-26T18:51:03.283Z,7.60
2019-03-26T18:53:33.263Z,7.50
2019-03-26T18:56:11.869Z,7.50
2019-03-26T18:58:49.057Z,7.50
2019-03-26T19:01:32.812Z,7.50
2019-03-26T19:04:05.623Z,7.50
2019-03-26T19:07:00.538Z,7.50
2019-03-26T19:09:35.320Z,7.10
2019-03-26T19:12:19.426Z,7.40
2019-03-26T19:15:15.931Z,8.40
2019-03-26T19:17:49.042Z,8.00
2019-03-26T19:20:24.908Z,7.40
2019-03-26T19:22:58.217Z,7.30
2019-03-26T19:25:33.171Z,7.30
2019-03-26T19:28:07.935Z,7.30
2019-03-26T19:30:39.647Z,7.30
2019-03-26T19:33:10.199Z,7.30
2019-03-26T19:35:40.513Z,8.80
2019-03-26T19:38:16.931Z,7.30
2019-03-26T19:40:47.194Z,7.30
2019-03-26T19:43:28.067Z,7.30
2019-03-26T19:46:09.805Z,7.30
2019-03-26T19:51:26.755Z,7.30
2019-03-26T19:58:59.253Z,7.20
2019-03-26T20:01:32.203Z,7.20
2019-03-26T20:04:02.440Z,7.20
2019-03-26T20:06:48.395Z,7.20
2019-03-26T20:19:48.480Z,7.20
2019-03-26T20:22:21.569Z,7.30
2019-03-26T20:27:21.071Z,7.30
2019-03-26T20:29:54.781Z,7.20
2019-03-26T20:35:17.358Z,8.00
2019-03-26T20:42:57.970Z,7.30
2019-03-26T20:45:39.351Z,7.30
2019-03-26T20:48:17.383Z,7.20
2019-03-26T20:50:57.211Z,7.20
2019-03-26T20:56:03.155Z,7.30
2019-03-26T20:58:39.689Z,7.00
2019-03-26T21:01:21.901Z,7.20
2019-03-26T21:04:00.899Z,7.20
2019-03-26T21:06:39.590Z,6.70
2019-03-26T21:09:19.349Z,7.10
2019-03-26T21:11:52.592Z,7.10
2019-03-26T21:14:27.215Z,7.10
2019-03-26T21:17:05.806Z,7.10
2019-03-26T21:19:46.306Z,7.00
2019-03-26T21:24:45.855Z,7.10
2019-03-26T21:27:18.113Z,7.10
2019-03-26T21:29:48.834Z,7.00
2019-03-26T21:32:30.822Z,7.00
2019-03-26T21:35:03.426Z,7.10
2019-03-26T21:37:33.715Z,7.10
2019-03-26T21:40:04.030Z,7.10
2019-03-26T21:42:36.442Z,7.10
2019-03-26T21:50:12.971Z,7.10
2019-03-26T21:55:27.267Z,7.10
2019-03-26T21:58:01.708Z,7.10
2019-03-26T22:00:34.508Z,7.10
2019-03-26T22:03:08.094Z,7.10
2019-03-26T22:10:42.225Z,7.10
2019-03-26T22:13:18.334Z,7.10
2019-03-26T22:15:55.899Z,6.80
2019-03-26T22:18:30.567Z,7.10
2019-03-26T22:23:29.803Z,6.80
2019-03-26T22:26:04.359Z,7.10
2019-03-26T22:28:35.503Z,7.10
2019-03-26T22:31:08.595Z,7.10
2019-03-26T22:33:38.942Z,7.10
2019-03-26T22:36:11.867Z,7.20
2019-03-26T22:38:43.093Z,7.10
2019-03-26T22:41:20.095Z,7.20
2019-03-26T22:43:50.683Z,7.80
2019-03-26T22:46:20.761Z,7.20
2019-03-26T22:48:52.077Z,7.10
2019-03-26T22:51:25.384Z,7.10
2019-03-26T22:53:58.264Z,7.10
2019-03-26T22:59:00.516Z,7.20
2019-03-26T23:04:03.164Z,7.10
2019-03-26T23:11:31.823Z,7.20
2019-03-26T23:14:01.854Z,7.10
2019-03-26T23:19:06.015Z,7.10
2019-03-26T23:21:38.296Z,7.00
2019-03-26T23:24:08.363Z,5.80
2019-03-26T23:26:38.749Z,7.00
2019-03-26T23:29:16.220Z,7.00
2019-03-26T23:31:46.486Z,6.90
2019-03-26T23:34:16.798Z,6.90
2019-03-26T23:39:21.807Z,6.80
2019-03-26T23:41:53.469Z,8.50
2019-03-26T23:44:26.246Z,6.70
2019-03-26T23:46:55.207Z,6.70
2019-03-26T23:49:25.506Z,6.70
2019-03-26T23:51:56.391Z,6.70
2019-03-26T23:54:26.483Z,5.60
2019-03-26T23:56:59.855Z,6.60
2019-03-26T23:59:29.874Z,6.50
